createdAt,value
2022-09-22T00:01:20.645Z,14.08
2022-09-22T00:04:27.215Z,14.10
2022-09-22T00:07:33.083Z,14.11
2022-09-22T00:10:39.027Z,14.12
2022-09-22T00:13:46.721Z,14.13
2022-09-22T00:16:54.715Z,14.11
2022-09-22T00:20:00.606Z,14.09
2022-09-22T00:23:06.492Z,14.08
2022-09-22T00:26:14.591Z,14.07
2022-09-22T00:29:21.021Z,14.06
2022-09-22T00:32:26.951Z,14.05
2022-09-22T00:35:32.817Z,14.05
2022-09-22T00:38:40.763Z,14.05
2022-09-22T00:41:48.442Z,14.05
2022-09-22T00:44:54.361Z,14.04
2022-09-22T00:48:00.262Z,14.02
2022-09-22T00:51:10.710Z,14.00
2022-09-22T00:54:20.344Z,14.00
2022-09-22T00:57:29.738Z,14.01
2022-09-22T01:00:36.004Z,14.01
2022-09-22T01:03:42.972Z,13.99
2022-09-22T01:06:49.178Z,13.98
2022-09-22T01:09:55.638Z,13.97
2022-09-22T01:13:14.238Z,13.95
2022-09-22T01:16:32.866Z,13.98
2022-09-22T01:20:09.435Z,13.98
2022-09-22T01:23:40.369Z,13.98
2022-09-22T01:27:21.521Z,13.97
2022-09-22T01:30:31.182Z,13.95
2022-09-22T01:33:46.066Z,13.94
2022-09-22T01:36:58.446Z,13.94
2022-09-22T01:40:10.669Z,13.94
2022-09-22T01:43:23.396Z,13.93
2022-09-22T01:46:34.376Z,13.92
2022-09-22T01:49:45.409Z,13.92
2022-09-22T01:52:53.417Z,13.90
2022-09-22T01:56:03.001Z,13.91
2022-09-22T01:59:13.061Z,13.92
2022-09-22T02:02:25.220Z,13.94
2022-09-22T02:05:35.181Z,13.96
2022-09-22T02:08:46.954Z,13.97
2022-09-22T02:11:53.301Z,13.98
2022-09-22T02:14:59.498Z,13.95
2022-09-22T02:18:07.158Z,13.95
2022-09-22T02:21:14.027Z,13.92
2022-09-22T02:24:35.158Z,13.94
2022-09-22T02:27:42.222Z,13.96
2022-09-22T02:31:10.920Z,13.96
2022-09-22T02:34:18.153Z,13.96
2022-09-22T02:37:30.893Z,13.96
2022-09-22T02:40:47.071Z,13.97
2022-09-22T02:43:58.802Z,13.99
2022-09-22T02:47:10.318Z,14.01
2022-09-22T02:50:20.007Z,14.01
2022-09-22T02:53:25.889Z,14.01
2022-09-22T02:56:32.054Z,14.02
2022-09-22T02:59:38.013Z,14.02
2022-09-22T03:02:43.910Z,14.00
2022-09-22T03:05:49.783Z,13.99
2022-09-22T03:08:55.646Z,14.00
2022-09-22T03:12:01.644Z,14.01
2022-09-22T03:15:09.681Z,14.01
2022-09-22T03:18:16.062Z,13.98
2022-09-22T03:21:21.953Z,13.96
2022-09-22T03:24:28.374Z,13.96
2022-09-22T03:27:34.266Z,13.96
2022-09-22T03:30:40.654Z,13.96
2022-09-22T03:33:50.604Z,13.95
2022-09-22T03:36:58.735Z,13.95
2022-09-22T03:40:05.937Z,13.95
2022-09-22T03:43:16.440Z,13.96
2022-09-22T03:46:22.734Z,13.96
2022-09-22T03:49:28.943Z,13.98
2022-09-22T03:52:34.927Z,13.96
2022-09-22T03:55:40.766Z,13.94
2022-09-22T03:58:46.690Z,13.93
2022-09-22T04:01:56.040Z,13.91
2022-09-22T04:05:03.922Z,13.90
2022-09-22T04:08:09.817Z,13.89
2022-09-22T04:11:15.719Z,13.87
2022-09-22T04:14:21.616Z,13.86
2022-09-22T04:17:27.494Z,13.85
2022-09-22T04:20:33.366Z,13.83
2022-09-22T04:23:39.751Z,13.84
2022-09-22T04:27:08.182Z,13.85
2022-09-22T04:30:14.198Z,13.83
2022-09-22T04:33:20.357Z,13.81
2022-09-22T04:36:24.553Z,13.77
2022-09-22T04:39:30.502Z,13.71
2022-09-22T04:42:36.373Z,13.71
2022-09-22T04:45:45.269Z,13.72
2022-09-22T04:48:51.206Z,13.74
2022-09-22T04:51:57.309Z,13.77
2022-09-22T04:55:03.189Z,13.75
2022-09-22T04:58:10.314Z,13.74
2022-09-22T05:01:16.255Z,13.74
2022-09-22T05:04:22.141Z,13.75
2022-09-22T05:07:28.494Z,13.78
2022-09-22T05:10:35.641Z,13.79
2022-09-22T05:13:41.945Z,13.74
2022-09-22T05:16:47.849Z,13.76
2022-09-22T05:19:56.017Z,13.79
2022-09-22T05:23:01.948Z,13.80
2022-09-22T05:26:08.011Z,13.82
2022-09-22T05:29:13.933Z,13.85
2022-09-22T05:32:19.778Z,13.86
2022-09-22T05:35:27.502Z,13.87
2022-09-22T05:38:33.356Z,13.88
2022-09-22T05:41:39.305Z,13.87
2022-09-22T05:44:45.173Z,13.88
2022-09-22T05:47:51.079Z,13.89
2022-09-22T05:50:56.954Z,13.87
2022-09-22T05:54:02.864Z,13.88
2022-09-22T05:57:08.745Z,13.85
2022-09-22T06:00:15.976Z,13.85
2022-09-22T06:03:21.829Z,13.85
2022-09-22T06:06:27.769Z,13.89
2022-09-22T06:09:33.958Z,13.93
2022-09-22T06:12:38.202Z,13.96
2022-09-22T06:15:48.799Z,13.98
2022-09-22T06:18:54.652Z,14.04
2022-09-22T06:22:01.406Z,14.07
2022-09-22T06:25:09.313Z,14.09
2022-09-22T06:28:16.287Z,14.12
2022-09-22T06:31:22.222Z,14.13
2022-09-22T06:34:28.394Z,14.13
2022-09-22T06:37:36.075Z,14.15
2022-09-22T06:40:42.665Z,14.17
2022-09-22T06:43:50.891Z,14.19
2022-09-22T06:46:56.777Z,14.23
2022-09-22T06:50:05.701Z,14.25
2022-09-22T06:53:13.987Z,14.26
2022-09-22T06:56:20.426Z,14.24
2022-09-22T06:59:26.784Z,14.24
2022-09-22T07:02:32.636Z,14.25
2022-09-22T07:05:39.183Z,14.28
2022-09-22T07:08:46.016Z,14.36
2022-09-22T07:11:51.921Z,14.46
2022-09-22T07:14:58.233Z,14.55
2022-09-22T07:18:02.441Z,14.59
2022-09-22T07:21:10.190Z,14.60
2022-09-22T07:24:16.102Z,14.70
2022-09-22T07:27:26.476Z,14.80
2022-09-22T07:30:32.354Z,14.88
2022-09-22T07:33:39.649Z,14.95
2022-09-22T07:36:45.532Z,14.94
2022-09-22T07:39:51.413Z,14.87
2022-09-22T07:42:57.308Z,14.84
2022-09-22T07:46:03.964Z,14.85
2022-09-22T07:49:09.861Z,14.88
2022-09-22T07:52:16.195Z,14.92
2022-09-22T07:55:22.434Z,14.97
2022-09-22T07:58:28.307Z,14.97
2022-09-22T08:01:34.767Z,15.05
2022-09-22T08:04:41.222Z,15.14
2022-09-22T08:07:47.175Z,15.21
2022-09-22T08:10:53.084Z,15.26
2022-09-22T08:14:00.958Z,15.31
2022-09-22T08:17:13.059Z,15.35
2022-09-22T08:20:20.249Z,15.46
2022-09-22T08:23:26.130Z,15.56
2022-09-22T08:26:31.990Z,15.65
2022-09-22T08:29:37.881Z,15.67
2022-09-22T08:32:43.851Z,15.71
2022-09-22T08:35:57.570Z,15.76
2022-09-22T08:39:04.238Z,15.84
2022-09-22T08:42:18.531Z,15.96
2022-09-22T08:45:31.175Z,16.07
2022-09-22T08:48:55.030Z,16.16
2022-09-22T08:52:06.512Z,16.23
2022-09-22T08:55:21.134Z,15.88
2022-09-22T08:58:42.969Z,15.30
2022-09-22T09:02:02.573Z,15.08
2022-09-22T09:05:33.098Z,15.43
2022-09-22T09:09:05.362Z,15.75
2022-09-22T09:12:29.934Z,15.95
2022-09-22T09:15:55.922Z,16.10
2022-09-22T09:19:07.911Z,16.24
2022-09-22T09:22:25.118Z,16.35
2022-09-22T09:25:38.435Z,16.44
2022-09-22T09:28:49.421Z,16.53
2022-09-22T09:31:58.665Z,16.33
2022-09-22T09:35:06.479Z,15.82
2022-09-22T09:38:16.182Z,15.56
2022-09-22T09:41:24.917Z,15.87
2022-09-22T09:44:33.416Z,16.17
2022-09-22T09:48:02.145Z,16.38
2022-09-22T09:51:11.906Z,16.05
2022-09-22T09:54:19.265Z,15.62
2022-09-22T09:57:28.649Z,15.47
2022-09-22T10:00:36.657Z,15.82
2022-09-22T10:03:54.766Z,16.14
2022-09-22T10:07:14.615Z,16.36
2022-09-22T10:10:35.902Z,16.56
2022-09-22T10:13:43.393Z,16.67
2022-09-22T10:16:54.868Z,16.33
2022-09-22T10:20:23.071Z,16.01
2022-09-22T10:23:32.746Z,15.65
2022-09-22T10:26:39.016Z,15.49
2022-09-22T10:29:44.949Z,15.82
2022-09-22T10:33:07.526Z,16.11
2022-09-22T10:36:14.188Z,16.27
2022-09-22T10:39:21.443Z,16.36
2022-09-22T10:42:35.023Z,16.42
2022-09-22T10:45:55.358Z,16.46
2022-09-22T10:49:12.630Z,16.48
2022-09-22T10:52:26.426Z,16.48
2022-09-22T10:55:37.090Z,16.49
2022-09-22T10:59:11.920Z,16.53
2022-09-22T11:02:35.890Z,16.57
2022-09-22T11:06:08.015Z,16.62
2022-09-22T11:09:46.901Z,16.69
2022-09-22T11:13:01.881Z,16.78
2022-09-22T11:16:34.591Z,16.87
2022-09-22T11:19:58.825Z,16.94
2022-09-22T11:23:30.381Z,16.99
2022-09-22T11:26:47.395Z,17.06
2022-09-22T11:30:20.805Z,17.07
2022-09-22T11:33:49.709Z,17.07
2022-09-22T11:36:58.676Z,17.05
2022-09-22T11:40:20.749Z,16.93
2022-09-22T11:43:44.485Z,16.35
2022-09-22T11:47:08.205Z,15.94
2022-09-22T11:50:50.312Z,16.16
2022-09-22T11:54:08.677Z,16.33
2022-09-22T11:57:19.413Z,16.39
2022-09-22T12:00:25.653Z,16.46
2022-09-22T12:03:37.584Z,16.52
2022-09-22T12:06:50.596Z,16.53
2022-09-22T12:10:01.861Z,16.14
2022-09-22T12:13:13.205Z,15.50
2022-09-22T12:16:24.489Z,15.17
2022-09-22T12:19:39.990Z,15.44
2022-09-22T12:23:14.545Z,15.72
2022-09-22T12:26:31.303Z,15.89
2022-09-22T12:29:38.906Z,15.97
2022-09-22T12:32:46.330Z,16.06
2022-09-22T12:35:58.067Z,16.16
2022-09-22T12:39:17.420Z,16.25
2022-09-22T12:42:28.427Z,16.31
2022-09-22T12:45:37.233Z,16.32
2022-09-22T12:48:47.518Z,16.30
2022-09-22T12:51:53.486Z,16.26
2022-09-22T12:55:19.313Z,16.23
2022-09-22T12:58:45.035Z,16.20
2022-09-22T13:02:09.298Z,16.18
2022-09-22T13:05:46.368Z,16.15
2022-09-22T13:09:21.646Z,16.20
2022-09-22T13:12:29.298Z,16.24
2022-09-22T13:15:59.708Z,16.26
2022-09-22T13:19:09.967Z,16.30
2022-09-22T13:22:20.802Z,16.34
2022-09-22T13:25:29.190Z,16.41
2022-09-22T13:28:35.085Z,16.50
2022-09-22T13:31:45.926Z,16.59
2022-09-22T13:34:51.770Z,16.69
2022-09-22T13:38:00.103Z,16.75
2022-09-22T13:41:12.272Z,16.74
2022-09-22T13:44:26.069Z,16.77
2022-09-22T13:47:32.614Z,16.80
2022-09-22T13:50:48.422Z,16.83
2022-09-22T13:53:54.086Z,16.87
2022-09-22T13:57:00.756Z,16.88
2022-09-22T14:00:09.938Z,16.92
2022-09-22T14:03:21.784Z,16.92
2022-09-22T14:06:32.050Z,16.94
2022-09-22T14:09:40.313Z,16.98
2022-09-22T14:12:46.177Z,17.00
2022-09-22T14:15:52.086Z,17.02
2022-09-22T14:19:04.691Z,17.04
2022-09-22T14:22:19.095Z,17.05
2022-09-22T14:25:25.470Z,17.08
2022-09-22T14:28:36.849Z,17.11
2022-09-22T14:31:45.592Z,17.13
2022-09-22T14:34:54.242Z,17.15
2022-09-22T14:38:12.970Z,17.14
2022-09-22T14:41:27.617Z,17.12
2022-09-22T14:44:44.900Z,16.81
2022-09-22T14:48:21.485Z,16.22
2022-09-22T14:51:28.735Z,15.71
2022-09-22T14:54:36.193Z,15.48
2022-09-22T14:57:48.762Z,15.76
2022-09-22T15:01:15.463Z,16.03
2022-09-22T15:04:24.183Z,16.19
2022-09-22T15:07:32.098Z,16.29
2022-09-22T15:10:39.892Z,16.33
2022-09-22T15:13:47.666Z,16.34
2022-09-22T15:17:13.569Z,16.36
2022-09-22T15:20:19.694Z,16.38
2022-09-22T15:23:27.191Z,16.40
2022-09-22T15:26:34.251Z,16.39
2022-09-22T15:29:40.270Z,16.40
2022-09-22T15:32:47.959Z,16.39
2022-09-22T15:35:57.814Z,16.38
2022-09-22T15:39:08.192Z,16.36
2022-09-22T15:42:14.261Z,16.32
2022-09-22T15:45:23.095Z,16.24
2022-09-22T15:48:34.046Z,16.17
2022-09-22T15:51:40.238Z,16.10
2022-09-22T15:54:47.862Z,16.04
2022-09-22T15:58:07.408Z,15.97
2022-09-22T16:01:14.662Z,15.94
2022-09-22T16:04:20.950Z,15.88
2022-09-22T16:07:26.969Z,15.80
2022-09-22T16:10:33.199Z,15.75
2022-09-22T16:13:38.163Z,15.67
2022-09-22T16:16:44.078Z,15.60
2022-09-22T16:19:50.002Z,15.58
2022-09-22T16:22:55.903Z,15.58
2022-09-22T16:26:01.910Z,15.56
2022-09-22T16:29:08.910Z,15.53
2022-09-22T16:32:14.792Z,15.49
2022-09-22T16:35:20.718Z,15.45
2022-09-22T16:38:26.642Z,15.42
2022-09-22T16:41:33.713Z,15.39
2022-09-22T16:44:39.705Z,15.37
2022-09-22T16:47:45.734Z,15.36
2022-09-22T16:50:54.678Z,15.36
2022-09-22T16:54:00.750Z,15.33
2022-09-22T16:57:07.027Z,15.31
2022-09-22T17:00:13.022Z,15.28
2022-09-22T17:03:19.114Z,15.22
2022-09-22T17:06:26.545Z,15.21
2022-09-22T17:09:32.952Z,15.20
2022-09-22T17:12:38.845Z,15.18
2022-09-22T17:15:44.861Z,15.16
2022-09-22T17:18:53.616Z,15.12
2022-09-22T17:21:59.863Z,15.08
2022-09-22T17:25:04.074Z,15.07
2022-09-22T17:28:09.929Z,15.03
2022-09-22T17:31:16.683Z,15.05
2022-09-22T17:34:22.894Z,15.04
2022-09-22T17:37:27.177Z,15.02
2022-09-22T17:40:33.055Z,14.99
2022-09-22T17:43:40.723Z,15.00
2022-09-22T17:47:00.414Z,14.99
2022-09-22T17:50:36.085Z,14.93
2022-09-22T17:53:59.698Z,14.89
2022-09-22T17:57:06.555Z,14.86
2022-09-22T18:00:15.373Z,14.85
2022-09-22T18:03:21.234Z,14.83
2022-09-22T18:06:27.177Z,14.83
2022-09-22T18:09:33.124Z,14.80
2022-09-22T18:12:39.626Z,14.78
2022-09-22T18:15:45.817Z,14.76
2022-09-22T18:18:52.025Z,14.75
2022-09-22T18:21:58.201Z,14.74
2022-09-22T18:25:04.158Z,14.72
2022-09-22T18:28:10.027Z,14.71
2022-09-22T18:31:17.504Z,14.71
2022-09-22T18:34:23.558Z,14.69
2022-09-22T18:37:29.705Z,14.68
2022-09-22T18:40:34.179Z,14.66
2022-09-22T18:43:42.047Z,14.63
2022-09-22T18:46:48.640Z,14.64
2022-09-22T18:49:54.858Z,14.65
2022-09-22T18:52:59.077Z,14.64
2022-09-22T18:56:12.931Z,14.56
2022-09-22T18:59:20.769Z,14.53
2022-09-22T19:02:26.882Z,14.52
2022-09-22T19:05:31.216Z,14.52
2022-09-22T19:08:37.071Z,14.48
2022-09-22T19:11:43.417Z,14.50
2022-09-22T19:14:50.208Z,14.49
2022-09-22T19:17:56.070Z,14.48
2022-09-22T19:21:04.090Z,14.47
2022-09-22T19:24:10.672Z,14.48
2022-09-22T19:27:19.206Z,14.48
2022-09-22T19:30:28.583Z,14.47
2022-09-22T19:33:37.219Z,14.47
2022-09-22T19:36:43.690Z,14.47
2022-09-22T19:39:50.458Z,14.46
2022-09-22T19:42:57.000Z,14.46
2022-09-22T19:46:03.488Z,14.46
2022-09-22T19:49:09.429Z,14.44
2022-09-22T19:52:15.328Z,14.41
2022-09-22T19:55:21.691Z,14.40
2022-09-22T19:58:27.942Z,14.38
2022-09-22T20:01:33.035Z,14.36
2022-09-22T20:04:39.299Z,14.33
2022-09-22T20:07:45.524Z,14.35
2022-09-22T20:10:58.391Z,14.36
2022-09-22T20:14:25.559Z,14.33
2022-09-22T20:17:31.861Z,14.34
2022-09-22T20:20:38.210Z,14.33
2022-09-22T20:23:44.099Z,14.32
2022-09-22T20:26:50.546Z,14.31
2022-09-22T20:29:57.854Z,14.29
2022-09-22T20:33:04.019Z,14.28
2022-09-22T20:36:13.541Z,14.26
2022-09-22T20:39:19.398Z,14.22
2022-09-22T20:42:25.753Z,14.22
2022-09-22T20:45:31.710Z,14.18
2022-09-22T20:48:37.659Z,14.15
2022-09-22T20:51:43.833Z,14.13
2022-09-22T20:54:49.768Z,14.14
2022-09-22T20:57:55.947Z,14.14
2022-09-22T21:01:03.054Z,14.15
2022-09-22T21:04:11.864Z,14.14
2022-09-22T21:07:21.745Z,14.13
2022-09-22T21:10:37.980Z,14.12
2022-09-22T21:13:44.211Z,14.08
2022-09-22T21:16:51.673Z,14.08
2022-09-22T21:19:58.438Z,14.04
2022-09-22T21:23:04.367Z,14.00
2022-09-22T21:26:10.693Z,13.91
2022-09-22T21:29:14.909Z,13.83
2022-09-22T21:32:20.806Z,13.72
2022-09-22T21:35:26.712Z,13.69
2022-09-22T21:38:33.022Z,13.68
2022-09-22T21:41:37.461Z,13.69
2022-09-22T21:44:43.353Z,13.68
2022-09-22T21:47:52.559Z,13.70
2022-09-22T21:51:03.386Z,13.71
2022-09-22T21:54:12.300Z,13.73
2022-09-22T21:57:18.130Z,13.75
2022-09-22T22:00:48.117Z,13.76
2022-09-22T22:03:52.401Z,13.79
2022-09-22T22:06:59.598Z,13.81
2022-09-22T22:10:05.825Z,13.83
2022-09-22T22:13:13.350Z,13.83
2022-09-22T22:16:20.151Z,13.84
2022-09-22T22:19:27.170Z,13.86
2022-09-22T22:22:33.387Z,13.86
2022-09-22T22:25:40.186Z,13.86
2022-09-22T22:28:47.003Z,13.87
2022-09-22T22:31:53.667Z,13.86
2022-09-22T22:34:59.559Z,13.87
2022-09-22T22:38:05.433Z,13.89
2022-09-22T22:41:13.732Z,13.89
2022-09-22T22:44:19.658Z,13.90
2022-09-22T22:47:25.732Z,13.92
2022-09-22T22:50:31.950Z,13.92
2022-09-22T22:53:38.161Z,13.94
2022-09-22T22:56:45.050Z,13.94
2022-09-22T22:59:53.726Z,13.90
2022-09-22T23:02:59.630Z,13.90
2022-09-22T23:06:05.634Z,13.89
2022-09-22T23:09:15.251Z,13.88
2022-09-22T23:12:21.119Z,13.87
2022-09-22T23:15:27.286Z,13.87
2022-09-22T23:18:35.218Z,13.85
2022-09-22T23:21:40.644Z,13.85
2022-09-22T23:24:46.031Z,13.84
2022-09-22T23:27:51.851Z,13.84
2022-09-22T23:31:03.063Z,13.84
2022-09-22T23:34:08.503Z,13.84
2022-09-22T23:37:13.884Z,13.85
2022-09-22T23:40:19.475Z,13.85
2022-09-22T23:43:26.117Z,13.84
2022-09-22T23:46:31.951Z,13.84
2022-09-22T23:49:37.424Z,13.84
2022-09-22T23:52:42.785Z,13.84
2022-09-22T23:55:48.145Z,13.84
2022-09-22T23:58:54.264Z,13.83
